createdAt,value
2022-09-06T00:01:52.449Z,101600.61
2022-09-06T00:04:33.162Z,101608.07
2022-09-06T00:07:13.600Z,101605.13
2022-09-06T00:10:43.290Z,101599.80
2022-09-06T00:13:44.228Z,101597.48
2022-09-06T00:16:35.758Z,101597.81
2022-09-06T00:19:07.402Z,101601.64
2022-09-06T00:22:16.663Z,101596.77
2022-09-06T00:25:38.061Z,101599.19
2022-09-06T00:28:48.189Z,101601.11
2022-09-06T00:31:35.542Z,101600.30
2022-09-06T00:34:34.335Z,101596.88
2022-09-06T00:37:41.288Z,101593.07
2022-09-06T00:40:53.217Z,101594.64
2022-09-06T00:43:34.525Z,101594.48
2022-09-06T00:46:51.387Z,101596.03
2022-09-06T00:50:05.432Z,101595.36
2022-09-06T00:53:08.693Z,101597.31
2022-09-06T00:55:45.853Z,101596.02
2022-09-06T00:58:47.452Z,101592.73
2022-09-06T01:01:39.395Z,101592.92
2022-09-06T01:04:29.100Z,101595.53
2022-09-06T01:08:08.318Z,101599.36
2022-09-06T01:10:57.659Z,101601.65
2022-09-06T01:14:21.804Z,101603.73
2022-09-06T01:17:56.956Z,101603.40
2022-09-06T01:20:42.119Z,101599.02
2022-09-06T01:24:04.831Z,101598.77
2022-09-06T01:27:10.424Z,101602.45
2022-09-06T01:30:20.681Z,101598.48
2022-09-06T01:33:14.246Z,101598.23
2022-09-06T01:37:06.219Z,101599.50
2022-09-06T01:40:30.709Z,101600.79
2022-09-06T01:43:14.239Z,101598.64
2022-09-06T01:46:18.042Z,101599.90
2022-09-06T01:49:23.606Z,101600.36
2022-09-06T01:52:36.835Z,101604.11
2022-09-06T01:55:55.715Z,101608.34
2022-09-06T01:58:53.025Z,101609.09
2022-09-06T02:01:47.391Z,101610.23
2022-09-06T02:04:47.230Z,101608.23
2022-09-06T02:08:01.922Z,101609.94
2022-09-06T02:11:10.895Z,101608.73
2022-09-06T02:13:59.630Z,101602.48
2022-09-06T02:17:03.686Z,101608.56
2022-09-06T02:20:07.679Z,101609.27
2022-09-06T02:23:06.821Z,101608.38
2022-09-06T02:26:03.858Z,101612.84
2022-09-06T02:29:11.589Z,101614.71
2022-09-06T02:32:00.105Z,101606.98
2022-09-06T02:34:48.176Z,101604.83
2022-09-06T02:37:43.618Z,101603.58
2022-09-06T02:41:13.073Z,101600.46
2022-09-06T02:44:02.062Z,101596.13
2022-09-06T02:46:45.363Z,101594.52
2022-09-06T02:49:32.685Z,101589.30
2022-09-06T02:52:23.055Z,101592.05
2022-09-06T02:54:55.424Z,101590.99
2022-09-06T02:57:42.778Z,101587.87
2022-09-06T03:00:27.742Z,101582.98
2022-09-06T03:03:13.940Z,101584.65
2022-09-06T03:06:03.924Z,101587.05
2022-09-06T03:08:55.855Z,101585.65
2022-09-06T03:11:25.121Z,101584.42
2022-09-06T03:14:12.888Z,101585.96
2022-09-06T03:16:54.916Z,101581.59
2022-09-06T03:19:27.031Z,101577.75
2022-09-06T03:22:39.638Z,101583.45
2022-09-06T03:25:16.436Z,101582.19
2022-09-06T03:28:15.541Z,101579.75
2022-09-06T03:30:53.700Z,101573.65
2022-09-06T03:33:51.586Z,101575.20
2022-09-06T03:36:35.770Z,101574.13
2022-09-06T03:39:15.996Z,101581.98
2022-09-06T03:42:28.784Z,101587.36
2022-09-06T03:45:32.038Z,101589.98
2022-09-06T03:48:11.404Z,101588.08
2022-09-06T03:51:03.475Z,101585.98
2022-09-06T03:54:24.518Z,101583.52
2022-09-06T03:57:14.648Z,101586.14
2022-09-06T04:00:27.431Z,101586.45
2022-09-06T04:03:09.289Z,101582.23
2022-09-06T04:06:27.400Z,101581.02
2022-09-06T04:09:59.309Z,101581.45
2022-09-06T04:12:39.846Z,101580.96
2022-09-06T04:16:09.350Z,101580.64
2022-09-06T04:18:49.878Z,101581.84
2022-09-06T04:21:22.324Z,101578.79
2022-09-06T04:24:43.279Z,101576.70
2022-09-06T04:27:35.398Z,101575.63
2022-09-06T04:30:33.043Z,101579.25
2022-09-06T04:33:50.522Z,101584.06
2022-09-06T04:36:33.130Z,101578.41
2022-09-06T04:39:18.053Z,101578.34
2022-09-06T04:42:09.525Z,101577.21
2022-09-06T04:45:21.575Z,101577.70
2022-09-06T04:48:05.491Z,101580.92
2022-09-06T04:51:03.303Z,101578.09
2022-09-06T04:53:41.000Z,101581.20
2022-09-06T04:56:42.782Z,101580.23
2022-09-06T04:59:58.202Z,101582.30
2022-09-06T05:03:14.445Z,101583.96
2022-09-06T05:06:14.255Z,101584.06
2022-09-06T05:08:49.364Z,101583.81
2022-09-06T05:11:21.270Z,101582.16
2022-09-06T05:14:15.954Z,101580.70
2022-09-06T05:17:15.671Z,101580.96
2022-09-06T05:20:14.726Z,101582.60
2022-09-06T05:22:54.438Z,101582.69
2022-09-06T05:25:31.591Z,101579.34
2022-09-06T05:28:08.716Z,101577.76
2022-09-06T05:30:51.346Z,101582.05
2022-09-06T05:33:30.980Z,101581.48
2022-09-06T05:36:23.884Z,101579.14
2022-09-06T05:39:22.092Z,101580.11
2022-09-06T05:42:21.740Z,101580.56
2022-09-06T05:45:02.534Z,101578.21
2022-09-06T05:48:00.105Z,101581.91
2022-09-06T05:50:46.925Z,101584.04
2022-09-06T05:53:58.780Z,101579.50
2022-09-06T05:56:38.766Z,101575.50
2022-09-06T05:59:10.574Z,101575.32
2022-09-06T06:01:58.598Z,101582.68
2022-09-06T06:05:01.862Z,101586.55
2022-09-06T06:07:30.445Z,101589.70
2022-09-06T06:10:09.452Z,101587.94
2022-09-06T06:13:01.199Z,101588.59
2022-09-06T06:15:44.792Z,101581.21
2022-09-06T06:18:24.034Z,101579.85
2022-09-06T06:21:44.975Z,101575.85
2022-09-06T06:24:39.720Z,101576.39
2022-09-06T06:27:23.734Z,101574.96
2022-09-06T06:30:09.707Z,101575.42
2022-09-06T06:33:03.276Z,101577.08
2022-09-06T06:36:05.241Z,101574.98
2022-09-06T06:39:17.348Z,101575.86
2022-09-06T06:41:51.054Z,101573.96
2022-09-06T06:44:39.348Z,101575.77
2022-09-06T06:47:11.788Z,101573.95
2022-09-06T06:49:52.595Z,101571.95
2022-09-06T06:52:24.565Z,101569.92
2022-09-06T06:55:01.376Z,101569.86
2022-09-06T06:57:44.735Z,101574.52
2022-09-06T07:00:39.182Z,101571.97
2022-09-06T07:03:32.662Z,101574.41
2022-09-06T07:06:16.405Z,101570.94
2022-09-06T07:08:46.622Z,101566.80
2022-09-06T07:11:19.478Z,101570.89
2022-09-06T07:13:50.549Z,101570.99
2022-09-06T07:16:22.588Z,101572.32
2022-09-06T07:18:53.047Z,101572.21
2022-09-06T07:24:10.315Z,101570.27
2022-09-06T07:26:40.325Z,101566.09
2022-09-06T07:29:12.153Z,101571.38
2022-09-06T07:34:33.898Z,101569.05
2022-09-06T07:37:02.806Z,101568.06
2022-09-06T07:39:33.306Z,101566.33
2022-09-06T07:42:04.997Z,101570.89
2022-09-06T07:44:33.800Z,101566.22
2022-09-06T07:55:35.874Z,101562.63
2022-09-06T07:58:04.978Z,101558.63
2022-09-06T08:00:33.980Z,101559.27
2022-09-06T08:03:07.571Z,101558.36
2022-09-06T08:11:15.612Z,101566.16
2022-09-06T08:13:45.014Z,101566.19
2022-09-06T08:16:15.743Z,101556.92
2022-09-06T08:18:47.814Z,101562.15
2022-09-06T08:21:17.015Z,101559.45
2022-09-06T08:23:49.820Z,101558.47
2022-09-06T08:26:23.695Z,101555.73
2022-09-06T08:29:03.005Z,101553.40
2022-09-06T08:31:33.338Z,101550.98
2022-09-06T08:34:02.939Z,101554.73
2022-09-06T08:36:32.460Z,101555.48
2022-09-06T08:39:06.468Z,101551.80
2022-09-06T08:42:04.150Z,101547.73
2022-09-06T08:44:57.639Z,101553.55
2022-09-06T08:47:27.565Z,101547.41
2022-09-06T08:50:02.556Z,101547.36
2022-09-06T08:53:16.338Z,101544.67
2022-09-06T08:55:55.081Z,101545.42
2022-09-06T08:58:46.019Z,101543.22
2022-09-06T09:01:27.733Z,101540.80
2022-09-06T09:04:03.304Z,101534.20
2022-09-06T09:06:32.982Z,101535.46
2022-09-06T09:09:06.649Z,101533.95
2022-09-06T09:11:36.542Z,101533.55
2022-09-06T09:14:05.390Z,101538.48
2022-09-06T09:16:35.106Z,101536.35
2022-09-06T09:19:05.766Z,101533.33
2022-09-06T09:21:40.745Z,101533.14
2022-09-06T09:24:12.315Z,101528.55
2022-09-06T09:26:57.872Z,101521.54
2022-09-06T09:29:29.517Z,101524.57
2022-09-06T09:32:00.204Z,101522.13
2022-09-06T09:34:34.765Z,101519.88
2022-09-06T09:40:28.711Z,101510.85
2022-09-06T09:43:29.884Z,101515.79
2022-09-06T09:46:16.768Z,101507.12
2022-09-06T09:49:01.328Z,101509.83
2022-09-06T09:51:32.801Z,101503.20
2022-09-06T09:54:04.812Z,101505.30
2022-09-06T09:56:52.998Z,101504.20
2022-09-06T09:59:26.145Z,101503.13
2022-09-06T10:02:01.719Z,101499.39
2022-09-06T10:04:43.218Z,101504.33
2022-09-06T10:07:18.476Z,101497.25
2022-09-06T10:09:59.726Z,101495.80
2022-09-06T10:12:33.489Z,101492.62
2022-09-06T10:15:06.910Z,101491.91
2022-09-06T10:17:50.192Z,101495.25
2022-09-06T10:20:33.893Z,101491.74
2022-09-06T10:23:12.613Z,101493.02
2022-09-06T10:25:55.930Z,101492.29
2022-09-06T10:28:44.414Z,101497.88
2022-09-06T10:31:42.457Z,101496.16
2022-09-06T10:34:35.883Z,101492.04
2022-09-06T10:37:10.741Z,101497.50
2022-09-06T10:40:07.165Z,101501.36
2022-09-06T10:42:50.437Z,101498.52
2022-09-06T10:45:24.847Z,101494.14
2022-09-06T10:48:03.018Z,101491.98
2022-09-06T10:50:46.511Z,101489.84
2022-09-06T10:53:20.802Z,101490.02
2022-09-06T10:56:01.845Z,101494.59
2022-09-06T11:01:42.171Z,101492.98
2022-09-06T11:04:20.394Z,101490.52
2022-09-06T11:06:53.773Z,101490.69
2022-09-06T11:09:33.019Z,101485.84
2022-09-06T11:12:22.877Z,101488.50
2022-09-06T11:14:52.420Z,101481.48
2022-09-06T11:17:41.651Z,101478.89
2022-09-06T11:20:35.145Z,101473.00
2022-09-06T11:23:37.733Z,101470.95
2022-09-06T11:26:55.543Z,101471.45
2022-09-06T11:29:27.527Z,101471.09
2022-09-06T11:34:57.026Z,101467.83
2022-09-06T11:37:36.932Z,101460.36
2022-09-06T11:40:32.118Z,101454.33
2022-09-06T11:43:01.482Z,101450.05
2022-09-06T11:45:53.003Z,101448.84
2022-09-06T11:48:24.790Z,101443.92
2022-09-06T11:50:59.214Z,101440.25
2022-09-06T11:53:34.435Z,101440.45
2022-09-06T11:56:03.345Z,101441.52
2022-09-06T11:58:38.014Z,101440.30
2022-09-06T12:01:12.968Z,101436.36
2022-09-06T12:04:10.253Z,101434.65
2022-09-06T12:07:12.497Z,101429.95
2022-09-06T12:09:43.059Z,101427.73
2022-09-06T12:12:16.778Z,101428.65
2022-09-06T12:14:49.511Z,101424.70
2022-09-06T12:17:20.478Z,101421.84
2022-09-06T12:19:52.092Z,101417.23
2022-09-06T12:22:29.708Z,101415.99
2022-09-06T12:25:35.214Z,101408.93
2022-09-06T12:28:23.784Z,101414.52
2022-09-06T12:30:53.719Z,101409.58
2022-09-06T12:33:39.027Z,101397.92
2022-09-06T12:36:29.886Z,101404.41
2022-09-06T12:39:16.502Z,101405.36
2022-09-06T12:41:50.682Z,101396.94
2022-09-06T12:44:28.315Z,101392.48
2022-09-06T12:47:03.417Z,101393.20
2022-09-06T12:49:32.340Z,101385.66
2022-09-06T12:52:27.401Z,101387.31
2022-09-06T12:54:56.078Z,101385.84
2022-09-06T12:57:26.611Z,101384.44
2022-09-06T12:59:58.625Z,101384.50
2022-09-06T13:02:43.110Z,101381.58
2022-09-06T13:05:13.632Z,101377.03
2022-09-06T13:07:49.222Z,101376.27
2022-09-06T13:10:22.525Z,101378.42
2022-09-06T13:12:53.208Z,101369.74
2022-09-06T13:15:31.567Z,101370.99
2022-09-06T13:18:22.702Z,101375.77
2022-09-06T13:21:00.426Z,101371.92
2022-09-06T13:23:31.120Z,101370.94
2022-09-06T13:25:59.881Z,101370.03
2022-09-06T13:28:30.093Z,101372.09
2022-09-06T13:31:18.531Z,101366.87
2022-09-06T13:33:57.398Z,101363.58
2022-09-06T13:36:32.910Z,101358.73
2022-09-06T13:39:04.140Z,101358.39
2022-09-06T13:41:37.606Z,101356.70
2022-09-06T13:44:18.682Z,101355.67
2022-09-06T13:46:47.512Z,101354.55
2022-09-06T13:49:16.157Z,101347.59
2022-09-06T13:51:44.842Z,101354.91
2022-09-06T13:54:14.616Z,101346.25
2022-09-06T13:56:46.253Z,101345.64
2022-09-06T13:59:15.319Z,101339.27
2022-09-06T14:01:47.382Z,101342.16
2022-09-06T14:04:21.490Z,101339.31
2022-09-06T14:06:50.160Z,101336.04
2022-09-06T14:09:19.271Z,101338.19
2022-09-06T14:11:48.480Z,101335.04
2022-09-06T14:14:18.730Z,101335.82
2022-09-06T14:16:48.024Z,101334.96
2022-09-06T14:19:17.283Z,101328.70
2022-09-06T14:21:46.147Z,101324.49
2022-09-06T14:24:14.990Z,101326.86
2022-09-06T14:26:43.339Z,101318.29
2022-09-06T14:29:12.024Z,101323.77
2022-09-06T14:31:41.021Z,101322.91
2022-09-06T14:34:09.704Z,101319.27
2022-09-06T14:36:38.723Z,101316.79
2022-09-06T14:39:07.274Z,101316.87
2022-09-06T14:41:35.658Z,101315.25
2022-09-06T14:44:04.651Z,101317.70
2022-09-06T14:46:33.273Z,101309.87
2022-09-06T14:49:06.371Z,101305.60
2022-09-06T14:51:37.110Z,101304.31
2022-09-06T14:54:13.920Z,101298.81
2022-09-06T14:56:43.988Z,101293.80
2022-09-06T14:59:13.458Z,101294.92
2022-09-06T15:01:42.428Z,101288.91
2022-09-06T15:04:14.717Z,101293.68
2022-09-06T15:06:47.358Z,101293.94
2022-09-06T15:09:17.555Z,101297.54
2022-09-06T15:11:51.478Z,101294.25
2022-09-06T15:14:30.046Z,101291.16
2022-09-06T15:17:00.343Z,101283.30
2022-09-06T15:19:30.283Z,101290.77
2022-09-06T15:21:59.148Z,101286.92
2022-09-06T15:24:28.896Z,101287.09
2022-09-06T15:26:58.039Z,101282.77
2022-09-06T15:29:27.606Z,101282.48
2022-09-06T15:31:57.531Z,101277.03
2022-09-06T15:34:26.907Z,101277.86
2022-09-06T15:36:56.926Z,101274.66
2022-09-06T15:39:26.028Z,101276.36
2022-09-06T15:41:58.700Z,101272.80
2022-09-06T15:44:27.778Z,101266.05
2022-09-06T15:47:07.256Z,101261.73
2022-09-06T15:49:37.439Z,101257.66
2022-09-06T15:52:07.696Z,101259.19
2022-09-06T15:54:57.530Z,101256.39
2022-09-06T15:57:35.489Z,101257.05
2022-09-06T16:00:05.477Z,101252.80
2022-09-06T16:02:34.457Z,101247.50
2022-09-06T16:05:08.917Z,101243.27
2022-09-06T16:07:41.263Z,101239.53
2022-09-06T16:10:20.598Z,101237.59
2022-09-06T16:12:52.107Z,101236.14
2022-09-06T16:15:26.575Z,101230.05
2022-09-06T16:18:05.702Z,101231.70
2022-09-06T16:20:38.215Z,101227.42
2022-09-06T16:23:09.429Z,101224.40
2022-09-06T16:25:38.546Z,101226.06
2022-09-06T16:28:07.189Z,101226.84
2022-09-06T16:30:41.083Z,101224.85
2022-09-06T16:33:13.838Z,101224.25
2022-09-06T16:35:43.404Z,101226.64
2022-09-06T16:38:15.155Z,101226.71
2022-09-06T16:40:46.396Z,101218.92
2022-09-06T16:43:35.903Z,101215.45
2022-09-06T16:46:05.497Z,101221.63
2022-09-06T16:48:38.272Z,101216.27
2022-09-06T16:51:15.942Z,101216.34
2022-09-06T16:53:47.557Z,101214.95
2022-09-06T16:56:18.532Z,101213.27
2022-09-06T16:58:56.458Z,101211.70
2022-09-06T17:01:27.234Z,101209.89
2022-09-06T17:03:56.221Z,101209.56
2022-09-06T17:06:25.177Z,101208.73
2022-09-06T17:08:58.730Z,101206.58
2022-09-06T17:11:29.311Z,101207.13
2022-09-06T17:13:58.302Z,101205.87
2022-09-06T17:16:45.383Z,101205.23
2022-09-06T17:19:14.820Z,101206.47
2022-09-06T17:21:46.761Z,101203.99
2022-09-06T17:24:15.802Z,101206.27
2022-09-06T17:26:44.256Z,101206.33
2022-09-06T17:29:13.156Z,101207.90
2022-09-06T17:31:42.009Z,101211.31
2022-09-06T17:34:11.769Z,101210.38
2022-09-06T17:36:42.994Z,101210.98
2022-09-06T17:39:21.407Z,101208.61
2022-09-06T17:41:56.283Z,101208.84
2022-09-06T17:44:26.971Z,101212.01
2022-09-06T17:47:14.373Z,101214.57
2022-09-06T17:49:44.110Z,101213.32
2022-09-06T17:52:14.020Z,101214.02
2022-09-06T17:54:44.842Z,101214.79
2022-09-06T17:57:14.025Z,101215.46
2022-09-06T17:59:43.149Z,101214.77
2022-09-06T18:02:12.147Z,101212.55
2022-09-06T18:04:41.143Z,101211.80
2022-09-06T18:07:10.047Z,101210.52
2022-09-06T18:09:40.610Z,101212.52
2022-09-06T18:12:09.753Z,101213.35
2022-09-06T18:14:38.643Z,101217.98
2022-09-06T18:17:09.304Z,101218.63
2022-09-06T18:19:38.679Z,101217.30
2022-09-06T18:22:07.891Z,101222.09
2022-09-06T18:24:39.122Z,101223.00
2022-09-06T18:27:14.462Z,101217.65
2022-09-06T18:29:48.574Z,101216.31
2022-09-06T18:32:17.875Z,101213.70
2022-09-06T18:34:52.298Z,101216.16
2022-09-06T18:37:21.948Z,101218.77
2022-09-06T18:39:51.060Z,101220.13
2022-09-06T18:42:22.243Z,101224.33
2022-09-06T18:44:51.750Z,101223.86
2022-09-06T18:47:23.917Z,101222.85
2022-09-06T18:50:22.337Z,101222.77
2022-09-06T18:52:51.847Z,101221.69
2022-09-06T18:55:26.326Z,101223.36
2022-09-06T18:58:00.892Z,101221.59
2022-09-06T19:00:38.737Z,101217.20
2022-09-06T19:03:15.482Z,101214.31
2022-09-06T19:05:47.980Z,101210.30
2022-09-06T19:08:17.610Z,101208.38
2022-09-06T19:10:47.111Z,101208.00
2022-09-06T19:13:19.406Z,101208.21
2022-09-06T19:16:17.188Z,101203.20
2022-09-06T19:18:50.131Z,101206.27
2022-09-06T19:21:25.053Z,101198.49
2022-09-06T19:24:01.027Z,101203.24
2022-09-06T19:26:38.524Z,101199.77
2022-09-06T19:29:39.974Z,101198.52
2022-09-06T19:32:29.008Z,101192.63
2022-09-06T19:35:50.987Z,101196.56
2022-09-06T19:39:03.154Z,101195.33
2022-09-06T19:42:06.163Z,101193.05
2022-09-06T19:45:16.633Z,101187.84
2022-09-06T19:48:58.752Z,101187.66
2022-09-06T19:51:37.969Z,101178.73
2022-09-06T20:09:42.498Z,101164.66
2022-09-06T20:13:00.958Z,101165.95
2022-09-06T20:16:31.742Z,101165.16
2022-09-06T20:19:23.379Z,101162.04
2022-09-06T20:22:23.166Z,101163.57
2022-09-06T20:25:49.260Z,101157.90
2022-09-06T20:28:58.599Z,101155.61
2022-09-06T20:32:16.055Z,101158.55
2022-09-06T20:34:53.705Z,101155.73
2022-09-06T20:38:03.265Z,101153.02
2022-09-06T20:41:34.114Z,101150.01
2022-09-06T20:45:16.011Z,101152.58
2022-09-06T20:48:35.429Z,101153.95
2022-09-06T20:51:56.195Z,101152.05
2022-09-06T20:54:44.611Z,101155.55
2022-09-06T20:57:19.475Z,101156.49
2022-09-06T21:00:19.989Z,101155.50
2022-09-06T21:03:17.669Z,101150.36
2022-09-06T21:06:30.265Z,101148.20
2022-09-06T21:09:45.870Z,101147.94
2022-09-06T21:13:06.985Z,101143.89
2022-09-06T21:16:14.060Z,101147.25
2022-09-06T21:19:29.000Z,101143.65
2022-09-06T21:22:40.760Z,101139.28
2022-09-06T21:26:14.885Z,101142.27
2022-09-06T21:29:13.021Z,101137.20
2022-09-06T21:32:53.599Z,101135.09
2022-09-06T21:36:00.692Z,101134.48
2022-09-06T21:38:39.404Z,101136.33
2022-09-06T21:42:09.736Z,101133.30
2022-09-06T21:45:38.746Z,101133.92
2022-09-06T21:48:43.985Z,101131.20
2022-09-06T21:51:48.200Z,101132.30
2022-09-06T21:54:47.493Z,101129.42
2022-09-06T21:57:32.849Z,101129.67
2022-09-06T22:00:53.769Z,101133.23
2022-09-06T22:04:20.643Z,101136.26
2022-09-06T22:07:49.994Z,101134.58
2022-09-06T22:10:48.025Z,101137.12
2022-09-06T22:14:17.535Z,101141.55
2022-09-06T22:17:24.623Z,101137.77
2022-09-06T22:20:34.008Z,101137.30
2022-09-06T22:23:43.401Z,101135.29
2022-09-06T22:42:16.600Z,101120.55
2022-09-06T22:45:49.920Z,101119.06
2022-09-06T23:00:36.783Z,101112.21
2022-09-06T23:03:51.700Z,101115.16
2022-09-06T23:06:42.934Z,101117.61
2022-09-06T23:09:34.832Z,101118.88
2022-09-06T23:12:22.739Z,101121.02
2022-09-06T23:15:48.524Z,101114.65
2022-09-06T23:18:37.281Z,101111.31
2022-09-06T23:21:34.627Z,101108.40
2022-09-06T23:24:04.034Z,101107.45
2022-09-06T23:27:21.921Z,101099.73
2022-09-06T23:30:11.701Z,101103.98
2022-09-06T23:32:51.043Z,101100.90
2022-09-06T23:35:44.297Z,101100.14
2022-09-06T23:38:28.474Z,101098.65
2022-09-06T23:41:03.384Z,101099.46
2022-09-06T23:43:46.603Z,101098.86
2022-09-06T23:46:30.223Z,101098.77
2022-09-06T23:49:03.127Z,101094.34
2022-09-06T23:52:03.348Z,101090.77
2022-09-06T23:55:23.952Z,101084.52
2022-09-06T23:58:13.428Z,101082.83
